sensor_id;sensor_type;location;lat;lon;timestamp;P1;durP1;ratioP1;P2;durP2;ratioP2
3881;SDS011;1956;53.482;10.238;2023-03-30T00:02:42;33.53;;;21.50;;
3881;SDS011;1956;53.482;10.238;2023-03-30T00:07:43;33.50;;;22.17;;
3881;SDS011;1956;53.482;10.238;2023-03-30T00:12:46;30.20;;;21.37;;
3881;SDS011;1956;53.482;10.238;2023-03-30T00:17:47;29.27;;;20.40;;
3881;SDS011;1956;53.482;10.238;2023-03-30T00:22:48;30.77;;;21.33;;
3881;SDS011;1956;53.482;10.238;2023-03-30T00:27:48;36.80;;;22.30;;
3881;SDS011;1956;53.482;10.238;2023-03-30T00:32:48;34.30;;;21.67;;
3881;SDS011;1956;53.482;10.238;2023-03-30T00:37:48;33.58;;;23.40;;
3881;SDS011;1956;53.482;10.238;2023-03-30T00:42:50;30.83;;;20.70;;
3881;SDS011;1956;53.482;10.238;2023-03-30T00:48:01;32.40;;;21.80;;
3881;SDS011;1956;53.482;10.238;2023-03-30T00:53:04;33.60;;;22.03;;
3881;SDS011;1956;53.482;10.238;2023-03-30T00:58:06;33.07;;;22.80;;
3881;SDS011;1956;53.482;10.238;2023-03-30T01:08:29;35.73;;;20.80;;
3881;SDS011;1956;53.482;10.238;2023-03-30T01:13:33;35.80;;;21.70;;
3881;SDS011;1956;53.482;10.238;2023-03-30T01:18:50;35.00;;;22.40;;
3881;SDS011;1956;53.482;10.238;2023-03-30T01:24:11;34.77;;;20.73;;
3881;SDS011;1956;53.482;10.238;2023-03-30T01:39:59;30.00;;;19.97;;
3881;SDS011;1956;53.482;10.238;2023-03-30T01:45:29;30.60;;;19.27;;
3881;SDS011;1956;53.482;10.238;2023-03-30T01:50:31;30.53;;;21.00;;
3881;SDS011;1956;53.482;10.238;2023-03-30T01:55:37;31.40;;;19.27;;
3881;SDS011;1956;53.482;10.238;2023-03-30T02:00:40;31.17;;;20.20;;
3881;SDS011;1956;53.482;10.238;2023-03-30T02:05:42;34.37;;;18.93;;
3881;SDS011;1956;53.482;10.238;2023-03-30T02:10:44;31.93;;;20.60;;
3881;SDS011;1956;53.482;10.238;2023-03-30T02:15:46;28.77;;;20.40;;
3881;SDS011;1956;53.482;10.238;2023-03-30T02:20:47;32.17;;;19.50;;
3881;SDS011;1956;53.482;10.238;2023-03-30T02:25:48;32.97;;;21.50;;
3881;SDS011;1956;53.482;10.238;2023-03-30T02:30:48;33.67;;;20.77;;
3881;SDS011;1956;53.482;10.238;2023-03-30T02:35:51;37.53;;;20.20;;
3881;SDS011;1956;53.482;10.238;2023-03-30T02:40:57;37.03;;;21.00;;
3881;SDS011;1956;53.482;10.238;2023-03-30T02:46:13;40.03;;;21.07;;
3881;SDS011;1956;53.482;10.238;2023-03-30T03:02:13;34.77;;;23.30;;
3881;SDS011;1956;53.482;10.238;2023-03-30T03:07:17;36.03;;;22.07;;
3881;SDS011;1956;53.482;10.238;2023-03-30T03:12:18;35.87;;;23.40;;
3881;SDS011;1956;53.482;10.238;2023-03-30T03:17:18;41.17;;;22.45;;
3881;SDS011;1956;53.482;10.238;2023-03-30T03:22:21;33.53;;;22.13;;
3881;SDS011;1956;53.482;10.238;2023-03-30T03:27:21;31.57;;;21.27;;
3881;SDS011;1956;53.482;10.238;2023-03-30T03:32:22;39.47;;;22.80;;
3881;SDS011;1956;53.482;10.238;2023-03-30T03:37:22;33.93;;;20.60;;
3881;SDS011;1956;53.482;10.238;2023-03-30T03:42:22;38.63;;;22.60;;
3881;SDS011;1956;53.482;10.238;2023-03-30T03:47:22;37.60;;;22.20;;
3881;SDS011;1956;53.482;10.238;2023-03-30T03:52:23;41.07;;;23.70;;
3881;SDS011;1956;53.482;10.238;2023-03-30T03:57:23;38.92;;;23.08;;
3881;SDS011;1956;53.482;10.238;2023-03-30T04:02:23;42.77;;;23.00;;
3881;SDS011;1956;53.482;10.238;2023-03-30T04:07:24;36.50;;;20.77;;
3881;SDS011;1956;53.482;10.238;2023-03-30T04:12:24;43.00;;;21.30;;
3881;SDS011;1956;53.482;10.238;2023-03-30T04:17:24;38.50;;;22.90;;
3881;SDS011;1956;53.482;10.238;2023-03-30T04:22:25;40.03;;;21.50;;
3881;SDS011;1956;53.482;10.238;2023-03-30T04:27:25;40.30;;;21.90;;
3881;SDS011;1956;53.482;10.238;2023-03-30T04:32:27;39.90;;;20.53;;
3881;SDS011;1956;53.482;10.238;2023-03-30T04:37:33;35.57;;;21.07;;
3881;SDS011;1956;53.482;10.238;2023-03-30T04:42:34;35.20;;;21.00;;
3881;SDS011;1956;53.482;10.238;2023-03-30T04:47:36;35.33;;;21.43;;
3881;SDS011;1956;53.482;10.238;2023-03-30T04:52:36;32.63;;;20.90;;
3881;SDS011;1956;53.482;10.238;2023-03-30T04:57:37;32.10;;;21.10;;
3881;SDS011;1956;53.482;10.238;2023-03-30T05:02:37;39.42;;;21.48;;
3881;SDS011;1956;53.482;10.238;2023-03-30T05:07:37;37.70;;;22.07;;
3881;SDS011;1956;53.482;10.238;2023-03-30T05:12:38;35.77;;;20.60;;
3881;SDS011;1956;53.482;10.238;2023-03-30T05:17:38;33.78;;;19.30;;
3881;SDS011;1956;53.482;10.238;2023-03-30T05:22:39;38.07;;;21.53;;
3881;SDS011;1956;53.482;10.238;2023-03-30T05:27:39;33.57;;;20.43;;
3881;SDS011;1956;53.482;10.238;2023-03-30T05:32:39;41.17;;;21.80;;
3881;SDS011;1956;53.482;10.238;2023-03-30T05:37:40;33.37;;;19.20;;
3881;SDS011;1956;53.482;10.238;2023-03-30T05:42:40;33.67;;;20.42;;
3881;SDS011;1956;53.482;10.238;2023-03-30T05:47:40;42.15;;;21.65;;
3881;SDS011;1956;53.482;10.238;2023-03-30T05:52:41;36.93;;;20.43;;
3881;SDS011;1956;53.482;10.238;2023-03-30T05:57:41;32.57;;;19.87;;
3881;SDS011;1956;53.482;10.238;2023-03-30T06:02:42;33.37;;;19.60;;
3881;SDS011;1956;53.482;10.238;2023-03-30T06:07:42;38.88;;;21.17;;
3881;SDS011;1956;53.482;10.238;2023-03-30T06:12:44;32.87;;;18.70;;
3881;SDS011;1956;53.482;10.238;2023-03-30T06:17:45;31.58;;;20.50;;
3881;SDS011;1956;53.482;10.238;2023-03-30T06:22:46;55.43;;;19.80;;
3881;SDS011;1956;53.482;10.238;2023-03-30T06:27:46;38.47;;;19.10;;
3881;SDS011;1956;53.482;10.238;2023-03-30T06:32:46;39.83;;;19.80;;
3881;SDS011;1956;53.482;10.238;2023-03-30T06:37:47;32.90;;;18.47;;
3881;SDS011;1956;53.482;10.238;2023-03-30T06:42:47;29.90;;;18.27;;
3881;SDS011;1956;53.482;10.238;2023-03-30T06:47:47;37.80;;;17.93;;
3881;SDS011;1956;53.482;10.238;2023-03-30T06:52:48;36.03;;;18.92;;
3881;SDS011;1956;53.482;10.238;2023-03-30T06:57:48;31.57;;;17.57;;
3881;SDS011;1956;53.482;10.238;2023-03-30T07:02:48;27.40;;;16.70;;
3881;SDS011;1956;53.482;10.238;2023-03-30T07:07:49;31.23;;;16.30;;
3881;SDS011;1956;53.482;10.238;2023-03-30T07:12:49;32.50;;;16.03;;
3881;SDS011;1956;53.482;10.238;2023-03-30T07:17:50;44.40;;;16.07;;
3881;SDS011;1956;53.482;10.238;2023-03-30T07:22:50;23.67;;;15.10;;
3881;SDS011;1956;53.482;10.238;2023-03-30T07:27:51;26.33;;;14.60;;
3881;SDS011;1956;53.482;10.238;2023-03-30T07:32:51;19.63;;;14.50;;
3881;SDS011;1956;53.482;10.238;2023-03-30T07:37:51;23.57;;;13.13;;
3881;SDS011;1956;53.482;10.238;2023-03-30T07:42:52;21.37;;;13.10;;
3881;SDS011;1956;53.482;10.238;2023-03-30T07:47:52;17.77;;;11.57;;
3881;SDS011;1956;53.482;10.238;2023-03-30T07:52:52;14.33;;;10.57;;
3881;SDS011;1956;53.482;10.238;2023-03-30T07:57:53;20.00;;;11.60;;
3881;SDS011;1956;53.482;10.238;2023-03-30T08:02:54;19.43;;;9.60;;
3881;SDS011;1956;53.482;10.238;2023-03-30T08:07:54;18.83;;;8.93;;
3881;SDS011;1956;53.482;10.238;2023-03-30T08:12:54;9.90;;;6.87;;
3881;SDS011;1956;53.482;10.238;2023-03-30T08:17:55;11.07;;;7.10;;
3881;SDS011;1956;53.482;10.238;2023-03-30T08:22:56;17.23;;;7.83;;
3881;SDS011;1956;53.482;10.238;2023-03-30T08:27:56;11.10;;;6.03;;
3881;SDS011;1956;53.482;10.238;2023-03-30T08:32:56;11.38;;;5.22;;
3881;SDS011;1956;53.482;10.238;2023-03-30T08:37:57;13.17;;;5.63;;
3881;SDS011;1956;53.482;10.238;2023-03-30T08:43:45;10.43;;;5.67;;
3881;SDS011;1956;53.482;10.238;2023-03-30T08:48:22;8.60;;;5.40;;
3881;SDS011;1956;53.482;10.238;2023-03-30T08:53:23;9.13;;;6.13;;
3881;SDS011;1956;53.482;10.238;2023-03-30T08:58:33;11.83;;;5.63;;
3881;SDS011;1956;53.482;10.238;2023-03-30T09:03:40;11.63;;;5.27;;
3881;SDS011;1956;53.482;10.238;2023-03-30T09:08:41;7.17;;;5.00;;
3881;SDS011;1956;53.482;10.238;2023-03-30T09:13:42;11.50;;;4.63;;
3881;SDS011;1956;53.482;10.238;2023-03-30T09:18:45;8.10;;;4.50;;
3881;SDS011;1956;53.482;10.238;2023-03-30T09:23:46;10.53;;;5.70;;
3881;SDS011;1956;53.482;10.238;2023-03-30T09:29:02;6.03;;;4.00;;
3881;SDS011;1956;53.482;10.238;2023-03-30T09:34:07;7.50;;;4.00;;
3881;SDS011;1956;53.482;10.238;2023-03-30T09:39:19;8.73;;;3.80;;
3881;SDS011;1956;53.482;10.238;2023-03-30T09:44:22;3.83;;;3.47;;
3881;SDS011;1956;53.482;10.238;2023-03-30T09:49:25;10.83;;;4.17;;
3881;SDS011;1956;53.482;10.238;2023-03-30T09:54:33;8.40;;;3.53;;
3881;SDS011;1956;53.482;10.238;2023-03-30T09:59:34;7.40;;;3.70;;
3881;SDS011;1956;53.482;10.238;2023-03-30T10:04:54;11.27;;;3.10;;
3881;SDS011;1956;53.482;10.238;2023-03-30T10:09:56;6.43;;;3.17;;
3881;SDS011;1956;53.482;10.238;2023-03-30T10:14:59;11.07;;;3.67;;
3881;SDS011;1956;53.482;10.238;2023-03-30T10:20:19;11.43;;;4.10;;
3881;SDS011;1956;53.482;10.238;2023-03-30T10:25:32;6.27;;;3.87;;
3881;SDS011;1956;53.482;10.238;2023-03-30T10:30:32;7.47;;;4.23;;
3881;SDS011;1956;53.482;10.238;2023-03-30T10:35:34;10.23;;;3.80;;
3881;SDS011;1956;53.482;10.238;2023-03-30T10:40:37;6.60;;;4.17;;
3881;SDS011;1956;53.482;10.238;2023-03-30T10:45:41;4.70;;;2.60;;
3881;SDS011;1956;53.482;10.238;2023-03-30T10:50:53;5.43;;;2.40;;
3881;SDS011;1956;53.482;10.238;2023-03-30T10:55:56;6.70;;;2.50;;
3881;SDS011;1956;53.482;10.238;2023-03-30T11:01:14;3.70;;;1.80;;
3881;SDS011;1956;53.482;10.238;2023-03-30T11:06:16;5.47;;;2.03;;
3881;SDS011;1956;53.482;10.238;2023-03-30T11:11:21;6.17;;;2.57;;
3881;SDS011;1956;53.482;10.238;2023-03-30T11:16:24;6.23;;;2.30;;
3881;SDS011;1956;53.482;10.238;2023-03-30T11:21:33;6.30;;;1.87;;
3881;SDS011;1956;53.482;10.238;2023-03-30T11:26:37;3.60;;;2.10;;
3881;SDS011;1956;53.482;10.238;2023-03-30T11:31:48;4.23;;;1.80;;
3881;SDS011;1956;53.482;10.238;2023-03-30T11:37:00;4.40;;;1.80;;
3881;SDS011;1956;53.482;10.238;2023-03-30T11:42:04;6.23;;;2.10;;
3881;SDS011;1956;53.482;10.238;2023-03-30T11:47:15;10.10;;;2.87;;
3881;SDS011;1956;53.482;10.238;2023-03-30T11:52:24;7.07;;;2.30;;
3881;SDS011;1956;53.482;10.238;2023-03-30T11:57:32;7.60;;;1.90;;
3881;SDS011;1956;53.482;10.238;2023-03-30T12:07:42;6.33;;;1.83;;
3881;SDS011;1956;53.482;10.238;2023-03-30T12:12:46;7.60;;;2.00;;
3881;SDS011;1956;53.482;10.238;2023-03-30T12:17:55;5.97;;;1.53;;
3881;SDS011;1956;53.482;10.238;2023-03-30T12:28:18;4.40;;;1.27;;
3881;SDS011;1956;53.482;10.238;2023-03-30T12:33:26;2.33;;;0.73;;
3881;SDS011;1956;53.482;10.238;2023-03-30T12:38:33;8.30;;;1.30;;
3881;SDS011;1956;53.482;10.238;2023-03-30T12:43:43;3.43;;;0.90;;
3881;SDS011;1956;53.482;10.238;2023-03-30T12:48:50;3.13;;;1.23;;
3881;SDS011;1956;53.482;10.238;2023-03-30T13:04:33;7.80;;;2.17;;
3881;SDS011;1956;53.482;10.238;2023-03-30T13:09:53;8.63;;;1.97;;
3881;SDS011;1956;53.482;10.238;2023-03-30T13:20:25;18.53;;;2.40;;
3881;SDS011;1956;53.482;10.238;2023-03-30T13:25:36;7.20;;;2.07;;
3881;SDS011;1956;53.482;10.238;2023-03-30T13:30:39;9.83;;;2.37;;
3881;SDS011;1956;53.482;10.238;2023-03-30T13:40:51;8.70;;;1.70;;
3881;SDS011;1956;53.482;10.238;2023-03-30T13:51:26;12.80;;;3.23;;
3881;SDS011;1956;53.482;10.238;2023-03-30T13:56:29;11.50;;;2.50;;
3881;SDS011;1956;53.482;10.238;2023-03-30T14:01:30;7.77;;;2.03;;
3881;SDS011;1956;53.482;10.238;2023-03-30T14:06:31;5.13;;;1.33;;
3881;SDS011;1956;53.482;10.238;2023-03-30T14:11:34;16.37;;;2.53;;
3881;SDS011;1956;53.482;10.238;2023-03-30T14:16:38;6.60;;;1.80;;
3881;SDS011;1956;53.482;10.238;2023-03-30T14:21:41;6.13;;;2.73;;
3881;SDS011;1956;53.482;10.238;2023-03-30T14:26:42;9.17;;;1.90;;
3881;SDS011;1956;53.482;10.238;2023-03-30T14:31:44;7.70;;;1.63;;
3881;SDS011;1956;53.482;10.238;2023-03-30T14:36:45;7.60;;;2.30;;
3881;SDS011;1956;53.482;10.238;2023-03-30T14:41:45;8.73;;;2.10;;
3881;SDS011;1956;53.482;10.238;2023-03-30T14:46:46;8.38;;;1.45;;
3881;SDS011;1956;53.482;10.238;2023-03-30T14:51:51;9.20;;;1.90;;
3881;SDS011;1956;53.482;10.238;2023-03-30T14:56:53;4.80;;;1.50;;
3881;SDS011;1956;53.482;10.238;2023-03-30T15:01:55;2.50;;;1.20;;
3881;SDS011;1956;53.482;10.238;2023-03-30T15:06:56;3.20;;;1.40;;
3881;SDS011;1956;53.482;10.238;2023-03-30T15:11:57;10.63;;;1.70;;
3881;SDS011;1956;53.482;10.238;2023-03-30T15:16:58;12.53;;;1.87;;
3881;SDS011;1956;53.482;10.238;2023-03-30T15:22:03;11.33;;;1.43;;
3881;SDS011;1956;53.482;10.238;2023-03-30T15:27:05;11.23;;;1.77;;
3881;SDS011;1956;53.482;10.238;2023-03-30T15:37:34;8.60;;;1.67;;
3881;SDS011;1956;53.482;10.238;2023-03-30T15:42:34;4.40;;;2.07;;
3881;SDS011;1956;53.482;10.238;2023-03-30T15:47:35;4.57;;;2.20;;
3881;SDS011;1956;53.482;10.238;2023-03-30T15:52:36;5.33;;;1.40;;
3881;SDS011;1956;53.482;10.238;2023-03-30T15:57:36;8.93;;;2.27;;
3881;SDS011;1956;53.482;10.238;2023-03-30T16:02:45;6.43;;;2.00;;
3881;SDS011;1956;53.482;10.238;2023-03-30T16:07:46;8.40;;;2.30;;
3881;SDS011;1956;53.482;10.238;2023-03-30T16:12:46;9.23;;;1.67;;
3881;SDS011;1956;53.482;10.238;2023-03-30T16:17:47;9.57;;;2.13;;
3881;SDS011;1956;53.482;10.238;2023-03-30T16:22:48;10.47;;;2.23;;
3881;SDS011;1956;53.482;10.238;2023-03-30T16:27:48;15.00;;;2.50;;
3881;SDS011;1956;53.482;10.238;2023-03-30T16:32:48;7.80;;;2.10;;
3881;SDS011;1956;53.482;10.238;2023-03-30T16:37:49;5.70;;;1.73;;
3881;SDS011;1956;53.482;10.238;2023-03-30T16:42:49;5.80;;;2.23;;
3881;SDS011;1956;53.482;10.238;2023-03-30T16:47:49;7.57;;;1.73;;
3881;SDS011;1956;53.482;10.238;2023-03-30T16:52:50;7.78;;;2.33;;
3881;SDS011;1956;53.482;10.238;2023-03-30T16:57:50;8.53;;;2.73;;
3881;SDS011;1956;53.482;10.238;2023-03-30T17:02:51;9.73;;;2.38;;
3881;SDS011;1956;53.482;10.238;2023-03-30T17:07:54;5.40;;;1.83;;
3881;SDS011;1956;53.482;10.238;2023-03-30T17:12:54;10.77;;;2.37;;
3881;SDS011;1956;53.482;10.238;2023-03-30T17:17:55;13.20;;;2.20;;
3881;SDS011;1956;53.482;10.238;2023-03-30T17:22:55;12.73;;;2.72;;
3881;SDS011;1956;53.482;10.238;2023-03-30T17:27:56;18.25;;;3.17;;
3881;SDS011;1956;53.482;10.238;2023-03-30T17:32:56;12.83;;;2.37;;
3881;SDS011;1956;53.482;10.238;2023-03-30T17:37:57;16.67;;;2.10;;
3881;SDS011;1956;53.482;10.238;2023-03-30T17:42:57;11.53;;;2.53;;
3881;SDS011;1956;53.482;10.238;2023-03-30T17:48:00;15.93;;;2.83;;
3881;SDS011;1956;53.482;10.238;2023-03-30T17:53:01;8.80;;;3.40;;
3881;SDS011;1956;53.482;10.238;2023-03-30T17:58:01;11.50;;;2.20;;
3881;SDS011;1956;53.482;10.238;2023-03-30T18:03:01;10.57;;;2.90;;
3881;SDS011;1956;53.482;10.238;2023-03-30T18:08:02;14.95;;;2.80;;
3881;SDS011;1956;53.482;10.238;2023-03-30T18:13:03;14.83;;;2.40;;
3881;SDS011;1956;53.482;10.238;2023-03-30T18:18:03;12.73;;;3.13;;
3881;SDS011;1956;53.482;10.238;2023-03-30T18:23:05;9.47;;;2.77;;
3881;SDS011;1956;53.482;10.238;2023-03-30T18:28:09;16.90;;;3.03;;
3881;SDS011;1956;53.482;10.238;2023-03-30T18:33:09;14.03;;;3.00;;
3881;SDS011;1956;53.482;10.238;2023-03-30T18:38:10;16.43;;;3.23;;
3881;SDS011;1956;53.482;10.238;2023-03-30T18:43:13;13.93;;;2.67;;
3881;SDS011;1956;53.482;10.238;2023-03-30T18:48:18;9.60;;;2.33;;
3881;SDS011;1956;53.482;10.238;2023-03-30T18:53:19;11.03;;;2.43;;
3881;SDS011;1956;53.482;10.238;2023-03-30T18:58:21;11.33;;;2.37;;
3881;SDS011;1956;53.482;10.238;2023-03-30T19:03:22;7.33;;;2.73;;
3881;SDS011;1956;53.482;10.238;2023-03-30T19:08:23;7.50;;;2.30;;
3881;SDS011;1956;53.482;10.238;2023-03-30T19:13:24;8.03;;;2.00;;
3881;SDS011;1956;53.482;10.238;2023-03-30T19:18:25;14.70;;;3.07;;
3881;SDS011;1956;53.482;10.238;2023-03-30T19:23:25;16.20;;;3.40;;
3881;SDS011;1956;53.482;10.238;2023-03-30T19:28:28;11.50;;;3.10;;
3881;SDS011;1956;53.482;10.238;2023-03-30T19:33:28;12.00;;;2.70;;
3881;SDS011;1956;53.482;10.238;2023-03-30T19:38:28;17.67;;;3.27;;
3881;SDS011;1956;53.482;10.238;2023-03-30T19:43:29;14.30;;;2.70;;
3881;SDS011;1956;53.482;10.238;2023-03-30T19:48:29;12.40;;;3.73;;
3881;SDS011;1956;53.482;10.238;2023-03-30T19:53:29;21.37;;;3.70;;
3881;SDS011;1956;53.482;10.238;2023-03-30T19:58:30;13.40;;;3.20;;
3881;SDS011;1956;53.482;10.238;2023-03-30T20:03:30;17.43;;;3.37;;
3881;SDS011;1956;53.482;10.238;2023-03-30T20:08:30;16.37;;;4.10;;
3881;SDS011;1956;53.482;10.238;2023-03-30T20:13:32;24.97;;;3.47;;
3881;SDS011;1956;53.482;10.238;2023-03-30T20:18:32;18.20;;;3.17;;
3881;SDS011;1956;53.482;10.238;2023-03-30T20:23:34;22.03;;;5.03;;
3881;SDS011;1956;53.482;10.238;2023-03-30T20:28:34;19.00;;;4.30;;
3881;SDS011;1956;53.482;10.238;2023-03-30T20:33:35;14.43;;;3.90;;
3881;SDS011;1956;53.482;10.238;2023-03-30T20:38:35;18.80;;;3.92;;
3881;SDS011;1956;53.482;10.238;2023-03-30T20:43:38;15.10;;;3.80;;
3881;SDS011;1956;53.482;10.238;2023-03-30T20:48:45;14.10;;;4.03;;
3881;SDS011;1956;53.482;10.238;2023-03-30T20:53:52;21.13;;;4.47;;
3881;SDS011;1956;53.482;10.238;2023-03-30T20:58:53;22.93;;;4.50;;
3881;SDS011;1956;53.482;10.238;2023-03-30T21:03:54;18.30;;;4.40;;
3881;SDS011;1956;53.482;10.238;2023-03-30T21:08:57;24.27;;;4.47;;
3881;SDS011;1956;53.482;10.238;2023-03-30T21:13:58;20.67;;;4.43;;
3881;SDS011;1956;53.482;10.238;2023-03-30T21:18:58;21.90;;;4.53;;
3881;SDS011;1956;53.482;10.238;2023-03-30T21:23:58;33.88;;;5.78;;
3881;SDS011;1956;53.482;10.238;2023-03-30T21:28:59;24.00;;;4.07;;
3881;SDS011;1956;53.482;10.238;2023-03-30T21:33:59;15.63;;;3.67;;
3881;SDS011;1956;53.482;10.238;2023-03-30T21:39:00;17.60;;;4.50;;
3881;SDS011;1956;53.482;10.238;2023-03-30T21:44:00;18.73;;;4.63;;
3881;SDS011;1956;53.482;10.238;2023-03-30T21:49:00;27.63;;;4.03;;
3881;SDS011;1956;53.482;10.238;2023-03-30T21:54:01;18.13;;;3.87;;
3881;SDS011;1956;53.482;10.238;2023-03-30T21:59:01;19.50;;;4.73;;
3881;SDS011;1956;53.482;10.238;2023-03-30T22:04:01;17.17;;;4.23;;
3881;SDS011;1956;53.482;10.238;2023-03-30T22:09:01;20.80;;;4.80;;
3881;SDS011;1956;53.482;10.238;2023-03-30T22:14:02;33.40;;;5.00;;
3881;SDS011;1956;53.482;10.238;2023-03-30T22:19:02;25.60;;;4.30;;
3881;SDS011;1956;53.482;10.238;2023-03-30T22:24:04;16.43;;;3.80;;
3881;SDS011;1956;53.482;10.238;2023-03-30T22:29:05;27.53;;;4.87;;
3881;SDS011;1956;53.482;10.238;2023-03-30T22:34:06;22.57;;;4.40;;
3881;SDS011;1956;53.482;10.238;2023-03-30T22:39:06;24.17;;;5.20;;
3881;SDS011;1956;53.482;10.238;2023-03-30T22:44:08;28.73;;;3.90;;
3881;SDS011;1956;53.482;10.238;2023-03-30T22:49:08;17.10;;;5.20;;
3881;SDS011;1956;53.482;10.238;2023-03-30T22:54:08;18.83;;;4.90;;
3881;SDS011;1956;53.482;10.238;2023-03-30T22:59:09;26.27;;;4.73;;
3881;SDS011;1956;53.482;10.238;2023-03-30T23:04:09;28.10;;;4.37;;
3881;SDS011;1956;53.482;10.238;2023-03-30T23:09:11;23.73;;;4.07;;
3881;SDS011;1956;53.482;10.238;2023-03-30T23:14:15;29.77;;;4.90;;
3881;SDS011;1956;53.482;10.238;2023-03-30T23:19:15;16.60;;;3.80;;
3881;SDS011;1956;53.482;10.238;2023-03-30T23:24:16;43.97;;;7.33;;
3881;SDS011;1956;53.482;10.238;2023-03-30T23:29:16;649.13;;;46.50;;
3881;SDS011;1956;53.482;10.238;2023-03-30T23:34:16;18.70;;;4.82;;
3881;SDS011;1956;53.482;10.238;2023-03-30T23:39:17;13.77;;;4.57;;
3881;SDS011;1956;53.482;10.238;2023-03-30T23:44:18;15.30;;;3.93;;
3881;SDS011;1956;53.482;10.238;2023-03-30T23:49:18;14.10;;;4.57;;
3881;SDS011;1956;53.482;10.238;2023-03-30T23:54:18;148.47;;;10.00;;
3881;SDS011;1956;53.482;10.238;2023-03-30T23:59:18;30.73;;;5.47;;
